Terminal Aerodrome Forecast
Issued by NWS Grand Forks, ND

Home | Current Version | Previous Version | Graphics & Text | Print | Product List | Glossary On
Versions: 1 2 3 4 5 6 7 8 9 10 11 12 13
000
FTUS43 KFGF 152324
TAFGFK
TAF
KGFK 152324Z 1600/1624 29007KT P6SM FEW050 BKN090
     FM160300 24006KT P6SM FEW200
     FM161700 21014G22KT P6SM FEW250
     FM162300 26011KT P6SM FEW250=

USA.gov is the U.S. government's official web portal to all federal, state and local government web resources and services.